sensor_id;sensor_type;location;lat;lon;timestamp;temperature;humidity
8862;DHT22;4799;50.996;4.754;2023-09-19T00:00:46;14.90;99.90
8862;DHT22;4799;50.996;4.754;2023-09-19T00:03:15;14.80;99.90
8862;DHT22;4799;50.996;4.754;2023-09-19T00:05:41;14.80;99.90
8862;DHT22;4799;50.996;4.754;2023-09-19T00:08:09;14.80;99.90
8862;DHT22;4799;50.996;4.754;2023-09-19T00:10:35;14.80;99.90
8862;DHT22;4799;50.996;4.754;2023-09-19T00:13:02;14.80;99.90
8862;DHT22;4799;50.996;4.754;2023-09-19T00:15:40;14.80;99.90
8862;DHT22;4799;50.996;4.754;2023-09-19T00:18:07;14.80;99.90
8862;DHT22;4799;50.996;4.754;2023-09-19T00:20:36;14.80;99.90
8862;DHT22;4799;50.996;4.754;2023-09-19T00:23:02;14.80;99.90
8862;DHT22;4799;50.996;4.754;2023-09-19T00:25:29;14.80;99.90
8862;DHT22;4799;50.996;4.754;2023-09-19T00:27:55;14.70;99.90
8862;DHT22;4799;50.996;4.754;2023-09-19T00:30:21;14.70;99.90
8862;DHT22;4799;50.996;4.754;2023-09-19T00:32:47;14.70;99.90
8862;DHT22;4799;50.996;4.754;2023-09-19T00:35:14;14.80;99.90
8862;DHT22;4799;50.996;4.754;2023-09-19T00:37:41;14.80;99.90
8862;DHT22;4799;50.996;4.754;2023-09-19T00:40:08;14.80;99.90
8862;DHT22;4799;50.996;4.754;2023-09-19T00:42:43;14.80;99.90
8862;DHT22;4799;50.996;4.754;2023-09-19T00:45:10;14.80;99.90
8862;DHT22;4799;50.996;4.754;2023-09-19T00:47:45;14.80;99.90
8862;DHT22;4799;50.996;4.754;2023-09-19T00:50:12;14.80;99.90
8862;DHT22;4799;50.996;4.754;2023-09-19T00:52:40;14.80;99.90
8862;DHT22;4799;50.996;4.754;2023-09-19T00:55:09;14.80;99.90
8862;DHT22;4799;50.996;4.754;2023-09-19T00:57:36;14.70;99.90
8862;DHT22;4799;50.996;4.754;2023-09-19T01:00:06;14.70;99.90
8862;DHT22;4799;50.996;4.754;2023-09-19T01:02:34;14.70;99.90
8862;DHT22;4799;50.996;4.754;2023-09-19T01:05:01;14.70;99.90
8862;DHT22;4799;50.996;4.754;2023-09-19T01:07:27;14.70;99.90
8862;DHT22;4799;50.996;4.754;2023-09-19T01:10:03;14.70;99.90
8862;DHT22;4799;50.996;4.754;2023-09-19T01:13:08;14.60;99.90
8862;DHT22;4799;50.996;4.754;2023-09-19T01:20:45;14.60;99.90
8862;DHT22;4799;50.996;4.754;2023-09-19T01:23:39;14.60;99.90
8862;DHT22;4799;50.996;4.754;2023-09-19T01:31:42;14.40;99.90
8862;DHT22;4799;50.996;4.754;2023-09-19T01:34:09;14.40;99.90
8862;DHT22;4799;50.996;4.754;2023-09-19T01:36:36;14.40;99.90
8862;DHT22;4799;50.996;4.754;2023-09-19T01:39:11;14.40;99.90
8862;DHT22;4799;50.996;4.754;2023-09-19T01:44:24;14.30;99.90
8862;DHT22;4799;50.996;4.754;2023-09-19T01:46:52;14.30;99.90
8862;DHT22;4799;50.996;4.754;2023-09-19T01:49:42;14.30;99.90
8862;DHT22;4799;50.996;4.754;2023-09-19T01:52:15;14.30;99.90
8862;DHT22;4799;50.996;4.754;2023-09-19T01:54:53;14.30;99.90
8862;DHT22;4799;50.996;4.754;2023-09-19T01:57:41;14.30;99.90
8862;DHT22;4799;50.996;4.754;2023-09-19T02:00:10;14.30;99.90
8862;DHT22;4799;50.996;4.754;2023-09-19T02:02:46;14.20;99.90
8862;DHT22;4799;50.996;4.754;2023-09-19T02:05:13;14.20;99.90
8862;DHT22;4799;50.996;4.754;2023-09-19T02:07:39;14.30;99.90
8862;DHT22;4799;50.996;4.754;2023-09-19T02:10:06;14.20;99.90
8862;DHT22;4799;50.996;4.754;2023-09-19T02:12:33;14.20;99.90
8862;DHT22;4799;50.996;4.754;2023-09-19T02:14:59;14.20;99.90
8862;DHT22;4799;50.996;4.754;2023-09-19T02:17:25;14.20;99.90
8862;DHT22;4799;50.996;4.754;2023-09-19T02:19:54;14.10;99.90
8862;DHT22;4799;50.996;4.754;2023-09-19T02:22:23;14.10;99.90
8862;DHT22;4799;50.996;4.754;2023-09-19T02:24:50;14.20;99.90
8862;DHT22;4799;50.996;4.754;2023-09-19T02:27:16;14.20;99.90
8862;DHT22;4799;50.996;4.754;2023-09-19T02:29:43;14.20;99.90
8862;DHT22;4799;50.996;4.754;2023-09-19T02:32:09;14.20;99.90
8862;DHT22;4799;50.996;4.754;2023-09-19T02:34:38;14.20;99.90
8862;DHT22;4799;50.996;4.754;2023-09-19T02:37:05;14.20;99.90
8862;DHT22;4799;50.996;4.754;2023-09-19T02:39:31;14.20;99.90
8862;DHT22;4799;50.996;4.754;2023-09-19T02:41:57;14.20;99.90
8862;DHT22;4799;50.996;4.754;2023-09-19T02:44:23;14.30;99.90
8862;DHT22;4799;50.996;4.754;2023-09-19T02:46:50;14.30;99.90
8862;DHT22;4799;50.996;4.754;2023-09-19T02:49:16;14.40;99.90
8862;DHT22;4799;50.996;4.754;2023-09-19T02:51:43;14.40;99.90
8862;DHT22;4799;50.996;4.754;2023-09-19T02:54:10;14.40;99.90
8862;DHT22;4799;50.996;4.754;2023-09-19T02:56:36;14.50;99.90
8862;DHT22;4799;50.996;4.754;2023-09-19T02:59:02;14.50;99.90
8862;DHT22;4799;50.996;4.754;2023-09-19T03:01:28;14.50;99.90
8862;DHT22;4799;50.996;4.754;2023-09-19T03:03:54;14.60;99.90
8862;DHT22;4799;50.996;4.754;2023-09-19T03:06:21;14.60;99.90
8862;DHT22;4799;50.996;4.754;2023-09-19T03:08:47;14.60;99.90
8862;DHT22;4799;50.996;4.754;2023-09-19T03:11:15;14.70;99.90
8862;DHT22;4799;50.996;4.754;2023-09-19T03:13:44;14.70;99.90
8862;DHT22;4799;50.996;4.754;2023-09-19T03:16:11;14.70;99.90
8862;DHT22;4799;50.996;4.754;2023-09-19T03:18:37;14.70;99.90
8862;DHT22;4799;50.996;4.754;2023-09-19T03:21:03;14.70;99.90
8862;DHT22;4799;50.996;4.754;2023-09-19T03:23:29;14.70;99.90
8862;DHT22;4799;50.996;4.754;2023-09-19T03:25:55;14.70;99.90
8862;DHT22;4799;50.996;4.754;2023-09-19T03:28:22;14.70;99.90
8862;DHT22;4799;50.996;4.754;2023-09-19T03:31:05;14.60;99.90
8862;DHT22;4799;50.996;4.754;2023-09-19T03:33:31;14.60;99.90
8862;DHT22;4799;50.996;4.754;2023-09-19T03:35:58;14.60;99.90
8862;DHT22;4799;50.996;4.754;2023-09-19T03:38:26;14.60;99.90
8862;DHT22;4799;50.996;4.754;2023-09-19T03:40:52;14.50;99.90
8862;DHT22;4799;50.996;4.754;2023-09-19T03:43:18;14.50;99.90
8862;DHT22;4799;50.996;4.754;2023-09-19T03:45:44;14.50;99.90
8862;DHT22;4799;50.996;4.754;2023-09-19T03:48:12;14.60;99.90
8862;DHT22;4799;50.996;4.754;2023-09-19T03:50:38;14.60;99.90
8862;DHT22;4799;50.996;4.754;2023-09-19T03:53:05;14.60;99.90
8862;DHT22;4799;50.996;4.754;2023-09-19T03:55:33;14.70;99.90
8862;DHT22;4799;50.996;4.754;2023-09-19T03:58:01;14.70;99.90
8862;DHT22;4799;50.996;4.754;2023-09-19T04:00:27;14.80;99.90
8862;DHT22;4799;50.996;4.754;2023-09-19T04:02:55;14.80;99.90
8862;DHT22;4799;50.996;4.754;2023-09-19T04:05:24;14.90;99.90
8862;DHT22;4799;50.996;4.754;2023-09-19T04:07:50;14.90;99.90
8862;DHT22;4799;50.996;4.754;2023-09-19T04:10:16;14.90;99.90
8862;DHT22;4799;50.996;4.754;2023-09-19T04:12:51;15.00;99.90
8862;DHT22;4799;50.996;4.754;2023-09-19T04:15:18;15.00;99.90
8862;DHT22;4799;50.996;4.754;2023-09-19T04:17:44;15.00;99.90
8862;DHT22;4799;50.996;4.754;2023-09-19T04:20:10;15.00;99.90
8862;DHT22;4799;50.996;4.754;2023-09-19T04:22:38;15.00;99.90
8862;DHT22;4799;50.996;4.754;2023-09-19T04:25:05;15.00;99.90
8862;DHT22;4799;50.996;4.754;2023-09-19T04:27:32;15.00;99.90
8862;DHT22;4799;50.996;4.754;2023-09-19T04:29:58;15.00;99.90
8862;DHT22;4799;50.996;4.754;2023-09-19T04:32:28;14.90;99.90
8862;DHT22;4799;50.996;4.754;2023-09-19T04:34:54;14.90;99.90
8862;DHT22;4799;50.996;4.754;2023-09-19T04:37:25;14.80;99.90
8862;DHT22;4799;50.996;4.754;2023-09-19T04:39:51;14.70;99.90
8862;DHT22;4799;50.996;4.754;2023-09-19T04:42:16;14.60;99.90
8862;DHT22;4799;50.996;4.754;2023-09-19T04:44:43;14.60;99.90
8862;DHT22;4799;50.996;4.754;2023-09-19T04:47:08;14.50;99.90
8862;DHT22;4799;50.996;4.754;2023-09-19T04:49:34;14.40;99.90
8862;DHT22;4799;50.996;4.754;2023-09-19T04:52:00;14.40;99.90
8862;DHT22;4799;50.996;4.754;2023-09-19T04:54:26;14.30;99.90
8862;DHT22;4799;50.996;4.754;2023-09-19T04:56:52;14.20;99.90
8862;DHT22;4799;50.996;4.754;2023-09-19T04:59:18;14.20;99.90
8862;DHT22;4799;50.996;4.754;2023-09-19T05:01:44;14.10;99.90
8862;DHT22;4799;50.996;4.754;2023-09-19T05:04:09;14.10;99.90
8862;DHT22;4799;50.996;4.754;2023-09-19T05:06:35;14.10;99.90
8862;DHT22;4799;50.996;4.754;2023-09-19T05:09:01;14.10;99.90
8862;DHT22;4799;50.996;4.754;2023-09-19T05:11:30;14.00;99.90
8862;DHT22;4799;50.996;4.754;2023-09-19T05:13:56;14.00;99.90
8862;DHT22;4799;50.996;4.754;2023-09-19T05:16:22;14.00;99.90
8862;DHT22;4799;50.996;4.754;2023-09-19T05:18:48;13.90;99.90
8862;DHT22;4799;50.996;4.754;2023-09-19T05:21:15;13.90;99.90
8862;DHT22;4799;50.996;4.754;2023-09-19T05:23:40;13.90;99.90
8862;DHT22;4799;50.996;4.754;2023-09-19T05:26:07;13.90;99.90
8862;DHT22;4799;50.996;4.754;2023-09-19T05:28:33;13.90;99.90
8862;DHT22;4799;50.996;4.754;2023-09-19T05:31:01;13.80;99.90
8862;DHT22;4799;50.996;4.754;2023-09-19T05:33:27;13.80;99.90
8862;DHT22;4799;50.996;4.754;2023-09-19T05:35:53;13.80;99.90
8862;DHT22;4799;50.996;4.754;2023-09-19T05:38:19;13.90;99.90
8862;DHT22;4799;50.996;4.754;2023-09-19T05:40:45;13.90;99.90
8862;DHT22;4799;50.996;4.754;2023-09-19T05:43:11;13.90;99.90
8862;DHT22;4799;50.996;4.754;2023-09-19T05:45:37;13.90;99.90
8862;DHT22;4799;50.996;4.754;2023-09-19T05:48:11;13.90;99.90
8862;DHT22;4799;50.996;4.754;2023-09-19T05:50:38;13.90;99.90
8862;DHT22;4799;50.996;4.754;2023-09-19T05:53:05;13.90;99.90
8862;DHT22;4799;50.996;4.754;2023-09-19T05:55:32;14.00;99.90
8862;DHT22;4799;50.996;4.754;2023-09-19T05:57:58;14.00;99.90
8862;DHT22;4799;50.996;4.754;2023-09-19T06:00:24;14.00;99.90
8862;DHT22;4799;50.996;4.754;2023-09-19T06:02:57;14.10;99.90
8862;DHT22;4799;50.996;4.754;2023-09-19T06:05:24;14.10;99.90
8862;DHT22;4799;50.996;4.754;2023-09-19T06:07:52;14.20;99.90
8862;DHT22;4799;50.996;4.754;2023-09-19T06:10:18;14.20;99.90
8862;DHT22;4799;50.996;4.754;2023-09-19T06:12:46;14.30;99.90
8862;DHT22;4799;50.996;4.754;2023-09-19T06:15:13;14.40;99.90
8862;DHT22;4799;50.996;4.754;2023-09-19T06:17:55;14.50;99.90
8862;DHT22;4799;50.996;4.754;2023-09-19T06:20:22;14.60;99.90
8862;DHT22;4799;50.996;4.754;2023-09-19T06:22:49;14.60;99.90
8862;DHT22;4799;50.996;4.754;2023-09-19T06:25:16;14.70;99.90
8862;DHT22;4799;50.996;4.754;2023-09-19T06:27:48;14.70;99.90
8862;DHT22;4799;50.996;4.754;2023-09-19T06:30:14;14.80;99.90
8862;DHT22;4799;50.996;4.754;2023-09-19T06:32:41;14.80;99.90
8862;DHT22;4799;50.996;4.754;2023-09-19T06:35:10;14.80;99.90
8862;DHT22;4799;50.996;4.754;2023-09-19T06:37:40;14.90;99.90
8862;DHT22;4799;50.996;4.754;2023-09-19T06:42:34;15.00;99.90
8862;DHT22;4799;50.996;4.754;2023-09-19T06:45:04;15.10;99.90
8862;DHT22;4799;50.996;4.754;2023-09-19T06:47:30;15.20;99.90
8862;DHT22;4799;50.996;4.754;2023-09-19T06:49:56;15.20;99.90
8862;DHT22;4799;50.996;4.754;2023-09-19T06:52:22;15.30;99.90
8862;DHT22;4799;50.996;4.754;2023-09-19T06:54:48;15.30;99.90
8862;DHT22;4799;50.996;4.754;2023-09-19T06:57:16;15.40;99.90
8862;DHT22;4799;50.996;4.754;2023-09-19T06:59:42;15.50;99.90
8862;DHT22;4799;50.996;4.754;2023-09-19T07:02:07;15.50;99.90
8862;DHT22;4799;50.996;4.754;2023-09-19T07:04:34;15.60;99.90
8862;DHT22;4799;50.996;4.754;2023-09-19T07:06:59;15.70;99.90
8862;DHT22;4799;50.996;4.754;2023-09-19T07:09:26;15.70;99.90
8862;DHT22;4799;50.996;4.754;2023-09-19T07:11:54;15.70;99.90
8862;DHT22;4799;50.996;4.754;2023-09-19T07:14:19;15.80;99.90
8862;DHT22;4799;50.996;4.754;2023-09-19T07:16:45;15.80;99.90
8862;DHT22;4799;50.996;4.754;2023-09-19T07:19:13;15.90;99.90
8862;DHT22;4799;50.996;4.754;2023-09-19T07:21:43;15.90;99.90
8862;DHT22;4799;50.996;4.754;2023-09-19T07:24:09;16.00;99.90
8862;DHT22;4799;50.996;4.754;2023-09-19T07:26:34;16.10;99.90
8862;DHT22;4799;50.996;4.754;2023-09-19T07:29:00;16.20;99.90
8862;DHT22;4799;50.996;4.754;2023-09-19T07:31:29;16.20;99.90
8862;DHT22;4799;50.996;4.754;2023-09-19T07:33:58;16.30;99.90
8862;DHT22;4799;50.996;4.754;2023-09-19T07:36:24;16.40;99.90
8862;DHT22;4799;50.996;4.754;2023-09-19T07:38:50;16.50;99.90
8862;DHT22;4799;50.996;4.754;2023-09-19T07:41:18;16.50;99.90
8862;DHT22;4799;50.996;4.754;2023-09-19T07:43:50;16.60;99.90
8862;DHT22;4799;50.996;4.754;2023-09-19T07:46:15;16.70;99.90
8862;DHT22;4799;50.996;4.754;2023-09-19T07:48:44;16.80;99.90
8862;DHT22;4799;50.996;4.754;2023-09-19T07:51:14;16.80;99.90
8862;DHT22;4799;50.996;4.754;2023-09-19T07:53:44;16.90;99.90
8862;DHT22;4799;50.996;4.754;2023-09-19T07:56:10;16.90;99.90
8862;DHT22;4799;50.996;4.754;2023-09-19T07:58:39;17.00;99.90
8862;DHT22;4799;50.996;4.754;2023-09-19T08:01:07;17.00;99.90
8862;DHT22;4799;50.996;4.754;2023-09-19T08:03:33;17.00;99.90
8862;DHT22;4799;50.996;4.754;2023-09-19T08:06:02;17.10;99.90
8862;DHT22;4799;50.996;4.754;2023-09-19T08:08:28;17.20;99.90
8862;DHT22;4799;50.996;4.754;2023-09-19T08:10:57;17.20;99.90
8862;DHT22;4799;50.996;4.754;2023-09-19T08:13:24;17.30;99.90
8862;DHT22;4799;50.996;4.754;2023-09-19T08:15:50;17.30;99.90
8862;DHT22;4799;50.996;4.754;2023-09-19T08:18:19;17.40;99.90
8862;DHT22;4799;50.996;4.754;2023-09-19T08:20:51;17.40;99.90
8862;DHT22;4799;50.996;4.754;2023-09-19T08:23:18;17.40;99.90
8862;DHT22;4799;50.996;4.754;2023-09-19T08:25:46;17.40;99.90
8862;DHT22;4799;50.996;4.754;2023-09-19T08:28:12;17.40;99.90
8862;DHT22;4799;50.996;4.754;2023-09-19T08:30:39;17.50;99.90
8862;DHT22;4799;50.996;4.754;2023-09-19T08:33:06;17.50;99.90
8862;DHT22;4799;50.996;4.754;2023-09-19T08:35:33;17.50;99.90
8862;DHT22;4799;50.996;4.754;2023-09-19T08:37:59;17.60;99.90
8862;DHT22;4799;50.996;4.754;2023-09-19T08:40:33;17.60;99.90
8862;DHT22;4799;50.996;4.754;2023-09-19T08:43:02;17.70;99.90
8862;DHT22;4799;50.996;4.754;2023-09-19T08:45:28;17.70;99.90
8862;DHT22;4799;50.996;4.754;2023-09-19T08:50:51;17.90;99.90
8862;DHT22;4799;50.996;4.754;2023-09-19T08:56:00;18.00;99.90
8862;DHT22;4799;50.996;4.754;2023-09-19T08:58:34;18.10;99.90
8862;DHT22;4799;50.996;4.754;2023-09-19T09:01:01;18.20;99.90
8862;DHT22;4799;50.996;4.754;2023-09-19T09:03:29;18.30;99.90
8862;DHT22;4799;50.996;4.754;2023-09-19T09:05:57;18.40;99.90
8862;DHT22;4799;50.996;4.754;2023-09-19T09:08:24;18.50;99.90
8862;DHT22;4799;50.996;4.754;2023-09-19T09:10:51;18.70;99.90
8862;DHT22;4799;50.996;4.754;2023-09-19T09:13:18;18.70;99.90
8862;DHT22;4799;50.996;4.754;2023-09-19T09:15:44;18.90;99.90
8862;DHT22;4799;50.996;4.754;2023-09-19T09:18:12;19.10;99.90
8862;DHT22;4799;50.996;4.754;2023-09-19T09:20:38;19.20;99.90
8862;DHT22;4799;50.996;4.754;2023-09-19T09:23:04;19.30;99.90
8862;DHT22;4799;50.996;4.754;2023-09-19T09:25:51;19.50;99.90
8862;DHT22;4799;50.996;4.754;2023-09-19T09:28:31;19.50;99.90
8862;DHT22;4799;50.996;4.754;2023-09-19T09:30:59;19.60;99.90
8862;DHT22;4799;50.996;4.754;2023-09-19T09:33:26;19.70;99.90
8862;DHT22;4799;50.996;4.754;2023-09-19T09:36:01;19.60;99.90
8862;DHT22;4799;50.996;4.754;2023-09-19T09:38:29;19.70;99.90
8862;DHT22;4799;50.996;4.754;2023-09-19T09:40:59;19.80;99.90
8862;DHT22;4799;50.996;4.754;2023-09-19T09:43:37;19.90;99.90
8862;DHT22;4799;50.996;4.754;2023-09-19T09:46:07;19.90;99.90
8862;DHT22;4799;50.996;4.754;2023-09-19T09:51:42;19.80;99.90
8862;DHT22;4799;50.996;4.754;2023-09-19T09:54:14;19.80;99.90
8862;DHT22;4799;50.996;4.754;2023-09-19T09:56:58;19.70;99.90
8862;DHT22;4799;50.996;4.754;2023-09-19T09:59:45;19.70;99.90
8862;DHT22;4799;50.996;4.754;2023-09-19T10:02:37;19.70;99.90
8862;DHT22;4799;50.996;4.754;2023-09-19T10:05:19;19.60;99.90
8862;DHT22;4799;50.996;4.754;2023-09-19T10:07:52;19.50;99.90
8862;DHT22;4799;50.996;4.754;2023-09-19T10:10:38;19.50;99.90
8862;DHT22;4799;50.996;4.754;2023-09-19T10:13:11;19.50;99.90
8862;DHT22;4799;50.996;4.754;2023-09-19T10:15:50;19.40;99.90
8862;DHT22;4799;50.996;4.754;2023-09-19T10:18:26;19.40;99.90
8862;DHT22;4799;50.996;4.754;2023-09-19T10:20:56;19.30;99.90
8862;DHT22;4799;50.996;4.754;2023-09-19T10:23:22;19.40;99.90
8862;DHT22;4799;50.996;4.754;2023-09-19T10:25:49;19.40;99.90
8862;DHT22;4799;50.996;4.754;2023-09-19T10:28:17;19.40;99.90
8862;DHT22;4799;50.996;4.754;2023-09-19T10:30:53;19.50;99.90
8862;DHT22;4799;50.996;4.754;2023-09-19T10:33:21;19.40;99.90
8862;DHT22;4799;50.996;4.754;2023-09-19T10:35:51;19.50;99.90
8862;DHT22;4799;50.996;4.754;2023-09-19T10:38:23;19.60;99.90
8862;DHT22;4799;50.996;4.754;2023-09-19T10:40:54;19.60;99.90
8862;DHT22;4799;50.996;4.754;2023-09-19T10:43:21;19.60;99.90
8862;DHT22;4799;50.996;4.754;2023-09-19T10:45:48;19.60;99.90
8862;DHT22;4799;50.996;4.754;2023-09-19T10:48:16;19.60;99.90
8862;DHT22;4799;50.996;4.754;2023-09-19T10:53:14;19.70;99.90
8862;DHT22;4799;50.996;4.754;2023-09-19T10:55:55;19.80;99.90
8862;DHT22;4799;50.996;4.754;2023-09-19T10:58:31;19.80;99.90
8862;DHT22;4799;50.996;4.754;2023-09-19T11:01:00;19.90;99.90
8862;DHT22;4799;50.996;4.754;2023-09-19T11:03:41;19.90;99.90
8862;DHT22;4799;50.996;4.754;2023-09-19T11:06:17;20.00;99.90
8862;DHT22;4799;50.996;4.754;2023-09-19T11:30:35;21.20;99.90
8862;DHT22;4799;50.996;4.754;2023-09-19T11:33:31;21.30;99.90
8862;DHT22;4799;50.996;4.754;2023-09-19T11:36:12;21.30;99.90
8862;DHT22;4799;50.996;4.754;2023-09-19T11:43:52;21.40;99.90
8862;DHT22;4799;50.996;4.754;2023-09-19T11:46:20;21.50;99.90
8862;DHT22;4799;50.996;4.754;2023-09-19T11:48:50;21.70;99.90
8862;DHT22;4799;50.996;4.754;2023-09-19T11:51:26;21.80;99.90
8862;DHT22;4799;50.996;4.754;2023-09-19T11:53:57;21.90;99.90
8862;DHT22;4799;50.996;4.754;2023-09-19T11:56:27;21.90;99.90
8862;DHT22;4799;50.996;4.754;2023-09-19T11:58:54;22.00;99.90
8862;DHT22;4799;50.996;4.754;2023-09-19T12:01:31;22.00;99.90
8862;DHT22;4799;50.996;4.754;2023-09-19T12:04:02;22.00;99.90
8862;DHT22;4799;50.996;4.754;2023-09-19T12:06:30;22.10;99.90
8862;DHT22;4799;50.996;4.754;2023-09-19T12:09:00;22.10;99.90
8862;DHT22;4799;50.996;4.754;2023-09-19T12:11:31;22.10;99.90
8862;DHT22;4799;50.996;4.754;2023-09-19T12:13:59;22.10;99.90
8862;DHT22;4799;50.996;4.754;2023-09-19T12:16:26;22.00;99.90
8862;DHT22;4799;50.996;4.754;2023-09-19T12:18:56;22.00;99.90
8862;DHT22;4799;50.996;4.754;2023-09-19T12:21:29;21.90;99.90
8862;DHT22;4799;50.996;4.754;2023-09-19T12:26:37;21.90;99.90
8862;DHT22;4799;50.996;4.754;2023-09-19T12:29:03;21.90;99.90
8862;DHT22;4799;50.996;4.754;2023-09-19T12:31:31;21.90;99.90
8862;DHT22;4799;50.996;4.754;2023-09-19T12:34:02;22.10;99.90
8862;DHT22;4799;50.996;4.754;2023-09-19T12:36:27;22.20;99.90
8862;DHT22;4799;50.996;4.754;2023-09-19T12:38:56;22.30;99.90
8862;DHT22;4799;50.996;4.754;2023-09-19T12:41:26;22.30;99.90
8862;DHT22;4799;50.996;4.754;2023-09-19T12:43:53;22.40;99.90
8862;DHT22;4799;50.996;4.754;2023-09-19T12:46:22;22.40;99.40
8862;DHT22;4799;50.996;4.754;2023-09-19T12:49:17;22.40;99.20
8862;DHT22;4799;50.996;4.754;2023-09-19T12:51:43;22.50;98.80
8862;DHT22;4799;50.996;4.754;2023-09-19T12:54:09;22.60;99.30
8862;DHT22;4799;50.996;4.754;2023-09-19T12:56:43;22.70;99.60
8862;DHT22;4799;50.996;4.754;2023-09-19T12:59:14;22.80;98.50
8862;DHT22;4799;50.996;4.754;2023-09-19T13:01:42;22.90;99.60
8862;DHT22;4799;50.996;4.754;2023-09-19T13:04:18;22.80;98.50
8862;DHT22;4799;50.996;4.754;2023-09-19T13:06:49;22.80;98.80
8862;DHT22;4799;50.996;4.754;2023-09-19T13:09:16;22.70;99.00
8862;DHT22;4799;50.996;4.754;2023-09-19T13:11:42;22.70;99.50
8862;DHT22;4799;50.996;4.754;2023-09-19T13:14:15;22.60;99.20
8862;DHT22;4799;50.996;4.754;2023-09-19T13:17:05;22.40;98.90
8862;DHT22;4799;50.996;4.754;2023-09-19T13:19:51;22.20;99.60
8862;DHT22;4799;50.996;4.754;2023-09-19T13:22:42;22.20;99.90
8862;DHT22;4799;50.996;4.754;2023-09-19T13:25:15;22.10;99.40
8862;DHT22;4799;50.996;4.754;2023-09-19T13:28:01;22.00;99.90
8862;DHT22;4799;50.996;4.754;2023-09-19T13:30:30;22.00;99.90
8862;DHT22;4799;50.996;4.754;2023-09-19T13:33:10;21.90;99.90
8862;DHT22;4799;50.996;4.754;2023-09-19T13:35:38;21.90;99.90
8862;DHT22;4799;50.996;4.754;2023-09-19T13:38:05;22.00;99.90
8862;DHT22;4799;50.996;4.754;2023-09-19T13:40:35;21.90;99.90
8862;DHT22;4799;50.996;4.754;2023-09-19T13:43:03;21.90;99.90
8862;DHT22;4799;50.996;4.754;2023-09-19T13:45:32;21.80;99.90
8862;DHT22;4799;50.996;4.754;2023-09-19T13:47:58;21.80;99.90
8862;DHT22;4799;50.996;4.754;2023-09-19T13:50:24;21.70;99.90
8862;DHT22;4799;50.996;4.754;2023-09-19T13:52:51;21.70;99.90
8862;DHT22;4799;50.996;4.754;2023-09-19T13:55:17;21.80;99.90
8862;DHT22;4799;50.996;4.754;2023-09-19T13:57:46;21.80;99.90
8862;DHT22;4799;50.996;4.754;2023-09-19T14:00:16;21.90;99.90
8862;DHT22;4799;50.996;4.754;2023-09-19T14:02:42;21.90;99.90
8862;DHT22;4799;50.996;4.754;2023-09-19T14:05:12;22.00;99.90
8862;DHT22;4799;50.996;4.754;2023-09-19T14:07:41;22.10;99.90
8862;DHT22;4799;50.996;4.754;2023-09-19T14:10:07;22.10;99.90
8862;DHT22;4799;50.996;4.754;2023-09-19T14:12:37;22.10;99.90
8862;DHT22;4799;50.996;4.754;2023-09-19T14:15:04;22.10;99.90
8862;DHT22;4799;50.996;4.754;2023-09-19T14:17:29;22.10;99.90
8862;DHT22;4799;50.996;4.754;2023-09-19T14:19:55;22.10;99.90
8862;DHT22;4799;50.996;4.754;2023-09-19T14:22:21;22.10;99.90
8862;DHT22;4799;50.996;4.754;2023-09-19T14:24:47;22.20;99.90
8862;DHT22;4799;50.996;4.754;2023-09-19T14:27:13;22.20;99.90
8862;DHT22;4799;50.996;4.754;2023-09-19T14:29:39;22.30;99.90
8862;DHT22;4799;50.996;4.754;2023-09-19T14:32:05;22.20;99.90
8862;DHT22;4799;50.996;4.754;2023-09-19T14:34:31;22.40;99.90
8862;DHT22;4799;50.996;4.754;2023-09-19T14:36:57;22.40;99.90
8862;DHT22;4799;50.996;4.754;2023-09-19T14:39:23;22.40;99.90
8862;DHT22;4799;50.996;4.754;2023-09-19T14:41:49;22.40;99.90
8862;DHT22;4799;50.996;4.754;2023-09-19T14:44:15;22.40;99.90
8862;DHT22;4799;50.996;4.754;2023-09-19T14:46:43;22.50;99.90
8862;DHT22;4799;50.996;4.754;2023-09-19T14:49:11;22.50;99.90
8862;DHT22;4799;50.996;4.754;2023-09-19T14:51:38;22.60;99.90
8862;DHT22;4799;50.996;4.754;2023-09-19T14:54:05;22.60;99.70
8862;DHT22;4799;50.996;4.754;2023-09-19T14:56:32;22.60;99.80
8862;DHT22;4799;50.996;4.754;2023-09-19T14:58:58;22.60;99.90
8862;DHT22;4799;50.996;4.754;2023-09-19T15:01:24;22.60;99.90
8862;DHT22;4799;50.996;4.754;2023-09-19T15:03:50;22.60;99.90
8862;DHT22;4799;50.996;4.754;2023-09-19T15:06:15;22.50;99.70
8862;DHT22;4799;50.996;4.754;2023-09-19T15:08:44;22.40;99.50
8862;DHT22;4799;50.996;4.754;2023-09-19T15:11:14;22.40;99.30
8862;DHT22;4799;50.996;4.754;2023-09-19T15:13:43;22.30;99.90
8862;DHT22;4799;50.996;4.754;2023-09-19T15:16:09;22.20;99.90
8862;DHT22;4799;50.996;4.754;2023-09-19T15:18:40;22.10;99.90
8862;DHT22;4799;50.996;4.754;2023-09-19T15:21:11;21.90;99.90
8862;DHT22;4799;50.996;4.754;2023-09-19T15:23:38;21.90;99.90
8862;DHT22;4799;50.996;4.754;2023-09-19T15:26:05;21.80;99.90
8862;DHT22;4799;50.996;4.754;2023-09-19T15:28:31;21.70;99.90
8862;DHT22;4799;50.996;4.754;2023-09-19T15:31:01;21.60;99.90
8862;DHT22;4799;50.996;4.754;2023-09-19T15:33:27;21.50;99.90
8862;DHT22;4799;50.996;4.754;2023-09-19T15:38:31;21.40;99.90
8862;DHT22;4799;50.996;4.754;2023-09-19T15:40:58;21.40;99.90
8862;DHT22;4799;50.996;4.754;2023-09-19T15:43:25;21.30;99.90
8862;DHT22;4799;50.996;4.754;2023-09-19T15:45:50;21.30;99.90
8862;DHT22;4799;50.996;4.754;2023-09-19T15:48:17;21.30;99.90
8862;DHT22;4799;50.996;4.754;2023-09-19T15:50:44;21.30;99.90
8862;DHT22;4799;50.996;4.754;2023-09-19T15:53:10;21.30;99.90
8862;DHT22;4799;50.996;4.754;2023-09-19T15:55:41;21.20;99.90
8862;DHT22;4799;50.996;4.754;2023-09-19T15:58:07;21.10;99.90
8862;DHT22;4799;50.996;4.754;2023-09-19T16:00:33;21.10;99.90
8862;DHT22;4799;50.996;4.754;2023-09-19T16:03:02;21.00;99.90
8862;DHT22;4799;50.996;4.754;2023-09-19T16:05:34;20.90;99.90
8862;DHT22;4799;50.996;4.754;2023-09-19T16:08:05;20.80;99.90
8862;DHT22;4799;50.996;4.754;2023-09-19T16:10:35;20.70;99.90
8862;DHT22;4799;50.996;4.754;2023-09-19T16:13:02;20.70;99.90
8862;DHT22;4799;50.996;4.754;2023-09-19T16:15:29;20.70;99.90
8862;DHT22;4799;50.996;4.754;2023-09-19T16:17:55;20.60;99.90
8862;DHT22;4799;50.996;4.754;2023-09-19T16:20:20;20.60;99.90
8862;DHT22;4799;50.996;4.754;2023-09-19T16:22:48;20.60;99.90
8862;DHT22;4799;50.996;4.754;2023-09-19T16:25:14;20.50;99.90
8862;DHT22;4799;50.996;4.754;2023-09-19T16:27:40;20.50;99.90
8862;DHT22;4799;50.996;4.754;2023-09-19T16:30:06;20.50;99.90
8862;DHT22;4799;50.996;4.754;2023-09-19T16:32:35;20.50;99.90
8862;DHT22;4799;50.996;4.754;2023-09-19T16:35:02;20.50;99.90
8862;DHT22;4799;50.996;4.754;2023-09-19T16:37:28;20.40;99.90
8862;DHT22;4799;50.996;4.754;2023-09-19T16:39:54;20.40;99.90
8862;DHT22;4799;50.996;4.754;2023-09-19T16:42:20;20.40;99.90
8862;DHT22;4799;50.996;4.754;2023-09-19T16:44:46;20.40;99.90
8862;DHT22;4799;50.996;4.754;2023-09-19T16:47:12;20.40;99.90
8862;DHT22;4799;50.996;4.754;2023-09-19T16:49:37;20.40;99.90
8862;DHT22;4799;50.996;4.754;2023-09-19T16:52:03;20.40;99.90
8862;DHT22;4799;50.996;4.754;2023-09-19T16:54:29;20.30;99.90
8862;DHT22;4799;50.996;4.754;2023-09-19T16:56:55;20.30;99.90
8862;DHT22;4799;50.996;4.754;2023-09-19T16:59:21;20.30;99.90
8862;DHT22;4799;50.996;4.754;2023-09-19T17:01:49;20.20;99.90
8862;DHT22;4799;50.996;4.754;2023-09-19T17:04:14;20.20;99.90
8862;DHT22;4799;50.996;4.754;2023-09-19T17:06:41;20.20;99.90
8862;DHT22;4799;50.996;4.754;2023-09-19T17:09:12;20.20;99.90
8862;DHT22;4799;50.996;4.754;2023-09-19T17:11:37;20.10;99.90